KERI/ERI METAR and TAF weather

Enter ICAO airport designator
Station Type Date Time Source
KERI METAR 2020/01/24 20:51 UTC NOAA

KERI 242051Z 13014G24KT 8SM -RA BKN070 OVC090 07/03 A2998 RMK AO2 SLP157 P0001 60001 T00720033 56030


Station Type Date Time Source
KERI Decoded METAR 2020/01/24 20:51 UTC NOAA

ERIE INTERNATIONAL AIRPORT, PA, United States (KERI) 42-05N 080-11W 222M
Jan 24, 2020 - 03:51 PM EST / 2020.01.24 2051 UTC
Wind: from the SE (130 degrees) at 16 MPH (14 KT) gusting to 28 MPH (24 KT):0
Visibility: 8 mile(s):0
Sky conditions: overcast
Weather: light rain
Precipitation last hour: 0.01 inches
Temperature: 45.0 F (7.2 C)
Dew Point: 37.9 F (3.3 C)
Relative Humidity: 76%
Pressure (altimeter): 29.98 in. Hg (1015 hPa)
Pressure tendency: 0.09 inches (3.0 hPa) lower than three hours ago
ob: KERI 242051Z 13014G24KT 8SM -RA BKN070 OVC090 07/03 A2998 RMK AO2 SLP157 P0001 60001 T00720033 56030
cycle: 21

Station Type Date Time Source
KERI TAF 2020/01/24 18:33 UTC NOAA

TAF KERI 241730Z 2418/2518 13010KT 6SM -RA OVC060
FM242300 13016G25KT 5SM -RA OVC035
TEMPO 2500/2503 2SM -SHRA OVC015
FM251100 15010KT 5SM -RA BR OVC015
FM251500 18007KT 2SM BR VCSH OVC008

Example: see airport list